sensor_id;sensor_type;location;lat;lon;timestamp;P1;durP1;ratioP1;P2;durP2;ratioP2
11614;SDS011;5863;52.832;4.758;2023-03-01T00:00:53;9.47;;;6.87;;
11614;SDS011;5863;52.832;4.758;2023-03-01T00:03:20;10.37;;;6.73;;
11614;SDS011;5863;52.832;4.758;2023-03-01T00:05:48;9.83;;;6.90;;
11614;SDS011;5863;52.832;4.758;2023-03-01T00:08:15;10.27;;;7.97;;
11614;SDS011;5863;52.832;4.758;2023-03-01T00:10:42;9.17;;;7.50;;
11614;SDS011;5863;52.832;4.758;2023-03-01T00:13:08;8.90;;;6.83;;
11614;SDS011;5863;52.832;4.758;2023-03-01T00:15:40;8.93;;;6.87;;
11614;SDS011;5863;52.832;4.758;2023-03-01T00:18:07;11.03;;;7.23;;
11614;SDS011;5863;52.832;4.758;2023-03-01T00:20:34;9.57;;;7.07;;
11614;SDS011;5863;52.832;4.758;2023-03-01T00:23:00;10.70;;;7.43;;
11614;SDS011;5863;52.832;4.758;2023-03-01T00:25:27;11.00;;;7.20;;
11614;SDS011;5863;52.832;4.758;2023-03-01T00:27:54;9.50;;;7.13;;
11614;SDS011;5863;52.832;4.758;2023-03-01T00:30:20;10.27;;;7.37;;
11614;SDS011;5863;52.832;4.758;2023-03-01T00:32:48;11.27;;;7.80;;
11614;SDS011;5863;52.832;4.758;2023-03-01T00:35:15;8.80;;;7.13;;
11614;SDS011;5863;52.832;4.758;2023-03-01T00:37:42;11.27;;;7.50;;
11614;SDS011;5863;52.832;4.758;2023-03-01T00:40:09;9.77;;;6.97;;
11614;SDS011;5863;52.832;4.758;2023-03-01T00:42:36;10.20;;;7.50;;
11614;SDS011;5863;52.832;4.758;2023-03-01T00:45:03;14.80;;;8.43;;
11614;SDS011;5863;52.832;4.758;2023-03-01T00:47:32;12.47;;;8.40;;
11614;SDS011;5863;52.832;4.758;2023-03-01T00:50:00;11.60;;;8.07;;
11614;SDS011;5863;52.832;4.758;2023-03-01T00:52:27;9.43;;;8.00;;
11614;SDS011;5863;52.832;4.758;2023-03-01T00:54:54;11.93;;;8.53;;
11614;SDS011;5863;52.832;4.758;2023-03-01T00:57:20;9.83;;;8.03;;
11614;SDS011;5863;52.832;4.758;2023-03-01T00:59:47;12.57;;;8.30;;
11614;SDS011;5863;52.832;4.758;2023-03-01T01:02:14;14.10;;;9.10;;
11614;SDS011;5863;52.832;4.758;2023-03-01T01:04:41;11.90;;;9.30;;
11614;SDS011;5863;52.832;4.758;2023-03-01T01:07:09;11.57;;;8.87;;
11614;SDS011;5863;52.832;4.758;2023-03-01T01:09:35;11.27;;;9.00;;
11614;SDS011;5863;52.832;4.758;2023-03-01T01:12:02;13.50;;;9.47;;
11614;SDS011;5863;52.832;4.758;2023-03-01T01:14:42;14.73;;;10.43;;
11614;SDS011;5863;52.832;4.758;2023-03-01T01:17:09;16.07;;;9.93;;
11614;SDS011;5863;52.832;4.758;2023-03-01T01:19:36;14.47;;;9.73;;
11614;SDS011;5863;52.832;4.758;2023-03-01T01:25:14;14.47;;;9.27;;
11614;SDS011;5863;52.832;4.758;2023-03-01T01:27:41;13.23;;;8.97;;
11614;SDS011;5863;52.832;4.758;2023-03-01T01:30:08;12.90;;;9.40;;
11614;SDS011;5863;52.832;4.758;2023-03-01T01:32:36;10.73;;;8.07;;
11614;SDS011;5863;52.832;4.758;2023-03-01T01:35:03;12.27;;;9.17;;
11614;SDS011;5863;52.832;4.758;2023-03-01T01:37:30;11.23;;;8.70;;
11614;SDS011;5863;52.832;4.758;2023-03-01T01:39:57;12.13;;;8.50;;
11614;SDS011;5863;52.832;4.758;2023-03-01T01:42:26;11.70;;;8.23;;
11614;SDS011;5863;52.832;4.758;2023-03-01T01:47:52;10.13;;;8.40;;
11614;SDS011;5863;52.832;4.758;2023-03-01T01:50:22;13.07;;;9.30;;
11614;SDS011;5863;52.832;4.758;2023-03-01T01:52:50;12.13;;;9.20;;
11614;SDS011;5863;52.832;4.758;2023-03-01T01:55:19;13.13;;;9.10;;
11614;SDS011;5863;52.832;4.758;2023-03-01T01:57:51;12.13;;;8.83;;
11614;SDS011;5863;52.832;4.758;2023-03-01T02:00:22;15.83;;;9.17;;
11614;SDS011;5863;52.832;4.758;2023-03-01T02:02:50;11.67;;;8.20;;
11614;SDS011;5863;52.832;4.758;2023-03-01T02:05:24;11.53;;;8.20;;
11614;SDS011;5863;52.832;4.758;2023-03-01T02:07:55;13.60;;;8.47;;
11614;SDS011;5863;52.832;4.758;2023-03-01T02:10:24;12.37;;;8.53;;
11614;SDS011;5863;52.832;4.758;2023-03-01T02:12:55;13.70;;;8.90;;
11614;SDS011;5863;52.832;4.758;2023-03-01T02:15:22;12.63;;;8.57;;
11614;SDS011;5863;52.832;4.758;2023-03-01T02:17:51;14.13;;;8.73;;
11614;SDS011;5863;52.832;4.758;2023-03-01T02:20:20;11.73;;;8.10;;
11614;SDS011;5863;52.832;4.758;2023-03-01T02:22:52;10.57;;;8.40;;
11614;SDS011;5863;52.832;4.758;2023-03-01T02:25:24;11.90;;;8.53;;
11614;SDS011;5863;52.832;4.758;2023-03-01T02:27:54;9.07;;;6.97;;
11614;SDS011;5863;52.832;4.758;2023-03-01T02:30:40;10.57;;;8.27;;
11614;SDS011;5863;52.832;4.758;2023-03-01T02:33:28;11.97;;;9.00;;
11614;SDS011;5863;52.832;4.758;2023-03-01T02:35:57;11.63;;;9.17;;
11614;SDS011;5863;52.832;4.758;2023-03-01T02:38:26;14.20;;;10.23;;
11614;SDS011;5863;52.832;4.758;2023-03-01T02:40:54;13.03;;;9.97;;
11614;SDS011;5863;52.832;4.758;2023-03-01T02:43:22;15.13;;;10.80;;
11614;SDS011;5863;52.832;4.758;2023-03-01T02:45:57;14.23;;;10.53;;
11614;SDS011;5863;52.832;4.758;2023-03-01T02:48:24;15.10;;;11.40;;
11614;SDS011;5863;52.832;4.758;2023-03-01T02:50:53;13.67;;;10.97;;
11614;SDS011;5863;52.832;4.758;2023-03-01T02:53:33;13.87;;;10.70;;
11614;SDS011;5863;52.832;4.758;2023-03-01T02:56:05;12.93;;;9.87;;
11614;SDS011;5863;52.832;4.758;2023-03-01T02:58:37;11.67;;;9.10;;
11614;SDS011;5863;52.832;4.758;2023-03-01T03:01:11;12.47;;;9.13;;
11614;SDS011;5863;52.832;4.758;2023-03-01T03:03:40;13.87;;;9.97;;
11614;SDS011;5863;52.832;4.758;2023-03-01T03:06:24;16.40;;;12.33;;
11614;SDS011;5863;52.832;4.758;2023-03-01T03:08:51;19.13;;;13.27;;
11614;SDS011;5863;52.832;4.758;2023-03-01T03:11:17;17.57;;;12.27;;
11614;SDS011;5863;52.832;4.758;2023-03-01T03:13:44;15.07;;;11.50;;
11614;SDS011;5863;52.832;4.758;2023-03-01T03:16:14;15.13;;;11.53;;
11614;SDS011;5863;52.832;4.758;2023-03-01T03:18:41;13.97;;;10.80;;
11614;SDS011;5863;52.832;4.758;2023-03-01T03:21:07;12.37;;;9.33;;
11614;SDS011;5863;52.832;4.758;2023-03-01T03:23:35;10.30;;;8.03;;
11614;SDS011;5863;52.832;4.758;2023-03-01T03:26:02;10.07;;;7.70;;
11614;SDS011;5863;52.832;4.758;2023-03-01T03:28:31;8.77;;;7.40;;
11614;SDS011;5863;52.832;4.758;2023-03-01T03:30:58;8.50;;;6.90;;
11614;SDS011;5863;52.832;4.758;2023-03-01T03:33:29;8.03;;;7.20;;
11614;SDS011;5863;52.832;4.758;2023-03-01T03:35:56;7.03;;;6.33;;
11614;SDS011;5863;52.832;4.758;2023-03-01T03:38:26;7.20;;;6.30;;
11614;SDS011;5863;52.832;4.758;2023-03-01T03:40:59;7.20;;;6.50;;
11614;SDS011;5863;52.832;4.758;2023-03-01T03:43:27;7.10;;;5.90;;
11614;SDS011;5863;52.832;4.758;2023-03-01T03:45:54;6.27;;;5.63;;
11614;SDS011;5863;52.832;4.758;2023-03-01T03:48:22;7.57;;;6.13;;
11614;SDS011;5863;52.832;4.758;2023-03-01T03:50:51;7.73;;;5.90;;
11614;SDS011;5863;52.832;4.758;2023-03-01T03:53:19;6.73;;;6.03;;
11614;SDS011;5863;52.832;4.758;2023-03-01T03:55:53;6.30;;;5.67;;
11614;SDS011;5863;52.832;4.758;2023-03-01T03:58:22;6.60;;;5.07;;
11614;SDS011;5863;52.832;4.758;2023-03-01T04:00:51;6.30;;;4.97;;
11614;SDS011;5863;52.832;4.758;2023-03-01T04:03:20;5.80;;;5.07;;
11614;SDS011;5863;52.832;4.758;2023-03-01T04:05:48;5.27;;;4.53;;
11614;SDS011;5863;52.832;4.758;2023-03-01T04:08:17;5.80;;;4.93;;
11614;SDS011;5863;52.832;4.758;2023-03-01T04:10:45;5.77;;;4.90;;
11614;SDS011;5863;52.832;4.758;2023-03-01T04:13:16;6.53;;;5.53;;
11614;SDS011;5863;52.832;4.758;2023-03-01T04:15:44;6.13;;;5.10;;
11614;SDS011;5863;52.832;4.758;2023-03-01T04:18:12;6.23;;;4.93;;
11614;SDS011;5863;52.832;4.758;2023-03-01T04:20:39;6.73;;;5.23;;
11614;SDS011;5863;52.832;4.758;2023-03-01T04:23:07;6.77;;;5.30;;
11614;SDS011;5863;52.832;4.758;2023-03-01T04:25:40;7.20;;;5.53;;
11614;SDS011;5863;52.832;4.758;2023-03-01T04:28:09;7.70;;;5.90;;
11614;SDS011;5863;52.832;4.758;2023-03-01T04:30:36;9.50;;;6.50;;
11614;SDS011;5863;52.832;4.758;2023-03-01T04:33:10;9.63;;;7.40;;
11614;SDS011;5863;52.832;4.758;2023-03-01T04:35:37;8.70;;;7.03;;
11614;SDS011;5863;52.832;4.758;2023-03-01T04:38:05;11.33;;;8.33;;
11614;SDS011;5863;52.832;4.758;2023-03-01T04:40:32;9.30;;;7.50;;
11614;SDS011;5863;52.832;4.758;2023-03-01T04:43:00;9.83;;;7.43;;
11614;SDS011;5863;52.832;4.758;2023-03-01T04:45:27;9.53;;;7.33;;
11614;SDS011;5863;52.832;4.758;2023-03-01T04:47:54;7.90;;;6.77;;
11614;SDS011;5863;52.832;4.758;2023-03-01T04:50:23;8.43;;;6.77;;
11614;SDS011;5863;52.832;4.758;2023-03-01T04:53:00;8.17;;;6.60;;
11614;SDS011;5863;52.832;4.758;2023-03-01T04:55:28;7.43;;;6.30;;
11614;SDS011;5863;52.832;4.758;2023-03-01T04:57:55;6.90;;;6.07;;
11614;SDS011;5863;52.832;4.758;2023-03-01T05:00:23;8.97;;;6.80;;
11614;SDS011;5863;52.832;4.758;2023-03-01T05:05:30;7.77;;;6.90;;
11614;SDS011;5863;52.832;4.758;2023-03-01T05:07:59;8.73;;;6.83;;
11614;SDS011;5863;52.832;4.758;2023-03-01T05:10:27;8.33;;;6.43;;
11614;SDS011;5863;52.832;4.758;2023-03-01T05:12:56;7.57;;;6.20;;
11614;SDS011;5863;52.832;4.758;2023-03-01T05:15:25;9.17;;;6.70;;
11614;SDS011;5863;52.832;4.758;2023-03-01T05:17:53;8.20;;;7.03;;
11614;SDS011;5863;52.832;4.758;2023-03-01T05:20:34;8.87;;;7.03;;
11614;SDS011;5863;52.832;4.758;2023-03-01T05:23:01;9.00;;;7.23;;
11614;SDS011;5863;52.832;4.758;2023-03-01T05:25:30;9.10;;;7.43;;
11614;SDS011;5863;52.832;4.758;2023-03-01T05:27:58;12.00;;;8.93;;
11614;SDS011;5863;52.832;4.758;2023-03-01T05:30:31;11.10;;;9.13;;
11614;SDS011;5863;52.832;4.758;2023-03-01T05:32:59;12.00;;;8.50;;
11614;SDS011;5863;52.832;4.758;2023-03-01T05:35:26;10.63;;;8.23;;
11614;SDS011;5863;52.832;4.758;2023-03-01T05:38:03;12.57;;;8.73;;
11614;SDS011;5863;52.832;4.758;2023-03-01T05:40:32;11.43;;;8.63;;
11614;SDS011;5863;52.832;4.758;2023-03-01T05:43:00;11.47;;;8.47;;
11614;SDS011;5863;52.832;4.758;2023-03-01T05:45:31;11.30;;;8.47;;
11614;SDS011;5863;52.832;4.758;2023-03-01T05:47:58;12.60;;;8.93;;
11614;SDS011;5863;52.832;4.758;2023-03-01T05:53:00;10.00;;;8.10;;
11614;SDS011;5863;52.832;4.758;2023-03-01T05:55:28;11.07;;;8.23;;
11614;SDS011;5863;52.832;4.758;2023-03-01T05:57:57;11.03;;;8.57;;
11614;SDS011;5863;52.832;4.758;2023-03-01T06:00:24;9.43;;;7.83;;
11614;SDS011;5863;52.832;4.758;2023-03-01T06:02:52;11.27;;;9.20;;
11614;SDS011;5863;52.832;4.758;2023-03-01T06:05:19;10.83;;;8.57;;
11614;SDS011;5863;52.832;4.758;2023-03-01T06:07:47;10.37;;;8.70;;
11614;SDS011;5863;52.832;4.758;2023-03-01T06:10:19;10.77;;;8.80;;
11614;SDS011;5863;52.832;4.758;2023-03-01T06:12:47;11.10;;;9.23;;
11614;SDS011;5863;52.832;4.758;2023-03-01T06:15:16;9.90;;;8.53;;
11614;SDS011;5863;52.832;4.758;2023-03-01T06:17:44;12.60;;;9.07;;
11614;SDS011;5863;52.832;4.758;2023-03-01T06:20:14;11.53;;;9.30;;
11614;SDS011;5863;52.832;4.758;2023-03-01T06:22:42;11.07;;;9.07;;
11614;SDS011;5863;52.832;4.758;2023-03-01T06:25:09;16.67;;;9.67;;
11614;SDS011;5863;52.832;4.758;2023-03-01T06:27:37;12.47;;;9.97;;
11614;SDS011;5863;52.832;4.758;2023-03-01T06:30:07;12.40;;;9.87;;
11614;SDS011;5863;52.832;4.758;2023-03-01T06:32:34;13.37;;;9.37;;
11614;SDS011;5863;52.832;4.758;2023-03-01T06:35:01;12.40;;;9.67;;
11614;SDS011;5863;52.832;4.758;2023-03-01T06:37:29;14.17;;;9.77;;
11614;SDS011;5863;52.832;4.758;2023-03-01T06:39:56;13.63;;;10.43;;
11614;SDS011;5863;52.832;4.758;2023-03-01T06:42:23;13.23;;;10.07;;
11614;SDS011;5863;52.832;4.758;2023-03-01T06:44:49;14.20;;;10.70;;
11614;SDS011;5863;52.832;4.758;2023-03-01T06:47:17;14.33;;;10.33;;
11614;SDS011;5863;52.832;4.758;2023-03-01T06:49:44;12.13;;;9.67;;
11614;SDS011;5863;52.832;4.758;2023-03-01T06:52:11;15.40;;;10.47;;
11614;SDS011;5863;52.832;4.758;2023-03-01T06:54:39;13.80;;;9.90;;
11614;SDS011;5863;52.832;4.758;2023-03-01T06:57:06;12.80;;;10.30;;
11614;SDS011;5863;52.832;4.758;2023-03-01T06:59:33;15.63;;;11.40;;
11614;SDS011;5863;52.832;4.758;2023-03-01T07:01:59;13.77;;;11.03;;
11614;SDS011;5863;52.832;4.758;2023-03-01T07:04:26;15.60;;;11.63;;
11614;SDS011;5863;52.832;4.758;2023-03-01T07:06:59;15.20;;;11.13;;
11614;SDS011;5863;52.832;4.758;2023-03-01T07:09:26;15.67;;;10.97;;
11614;SDS011;5863;52.832;4.758;2023-03-01T07:11:54;15.43;;;11.13;;
11614;SDS011;5863;52.832;4.758;2023-03-01T07:14:21;16.57;;;12.10;;
11614;SDS011;5863;52.832;4.758;2023-03-01T07:16:49;13.47;;;11.20;;
11614;SDS011;5863;52.832;4.758;2023-03-01T07:19:16;14.70;;;10.90;;
11614;SDS011;5863;52.832;4.758;2023-03-01T07:21:42;17.63;;;11.60;;
11614;SDS011;5863;52.832;4.758;2023-03-01T07:24:09;17.33;;;11.93;;
11614;SDS011;5863;52.832;4.758;2023-03-01T07:26:36;15.10;;;11.47;;
11614;SDS011;5863;52.832;4.758;2023-03-01T07:29:10;14.37;;;11.03;;
11614;SDS011;5863;52.832;4.758;2023-03-01T07:31:37;14.43;;;11.40;;
11614;SDS011;5863;52.832;4.758;2023-03-01T07:34:03;14.43;;;11.77;;
11614;SDS011;5863;52.832;4.758;2023-03-01T07:36:30;14.67;;;11.00;;
11614;SDS011;5863;52.832;4.758;2023-03-01T07:38:57;18.93;;;11.90;;
11614;SDS011;5863;52.832;4.758;2023-03-01T07:41:27;18.57;;;12.47;;
11614;SDS011;5863;52.832;4.758;2023-03-01T07:43:54;16.00;;;12.80;;
11614;SDS011;5863;52.832;4.758;2023-03-01T07:46:22;16.93;;;12.67;;
11614;SDS011;5863;52.832;4.758;2023-03-01T07:48:48;16.97;;;12.70;;
11614;SDS011;5863;52.832;4.758;2023-03-01T07:51:15;15.70;;;12.57;;
11614;SDS011;5863;52.832;4.758;2023-03-01T07:53:45;17.57;;;13.37;;
11614;SDS011;5863;52.832;4.758;2023-03-01T07:56:13;18.07;;;12.73;;
11614;SDS011;5863;52.832;4.758;2023-03-01T07:58:44;18.50;;;13.73;;
11614;SDS011;5863;52.832;4.758;2023-03-01T08:01:11;16.30;;;12.67;;
11614;SDS011;5863;52.832;4.758;2023-03-01T08:03:41;19.03;;;13.50;;
11614;SDS011;5863;52.832;4.758;2023-03-01T08:06:09;17.77;;;12.80;;
11614;SDS011;5863;52.832;4.758;2023-03-01T08:08:37;16.50;;;12.60;;
11614;SDS011;5863;52.832;4.758;2023-03-01T08:11:05;17.37;;;13.30;;
11614;SDS011;5863;52.832;4.758;2023-03-01T08:13:33;15.30;;;12.40;;
11614;SDS011;5863;52.832;4.758;2023-03-01T08:16:00;15.70;;;12.23;;
11614;SDS011;5863;52.832;4.758;2023-03-01T08:18:28;18.73;;;13.43;;
11614;SDS011;5863;52.832;4.758;2023-03-01T08:20:56;20.83;;;13.43;;
11614;SDS011;5863;52.832;4.758;2023-03-01T08:23:28;16.97;;;12.90;;
11614;SDS011;5863;52.832;4.758;2023-03-01T08:25:55;16.93;;;12.77;;
11614;SDS011;5863;52.832;4.758;2023-03-01T08:28:28;16.83;;;12.70;;
11614;SDS011;5863;52.832;4.758;2023-03-01T08:30:55;18.97;;;14.27;;
11614;SDS011;5863;52.832;4.758;2023-03-01T08:33:22;18.27;;;14.30;;
11614;SDS011;5863;52.832;4.758;2023-03-01T08:35:48;18.57;;;14.10;;
11614;SDS011;5863;52.832;4.758;2023-03-01T08:38:17;17.63;;;13.67;;
11614;SDS011;5863;52.832;4.758;2023-03-01T08:40:44;19.53;;;13.57;;
11614;SDS011;5863;52.832;4.758;2023-03-01T08:43:11;19.63;;;13.03;;
11614;SDS011;5863;52.832;4.758;2023-03-01T08:45:37;16.77;;;13.13;;
11614;SDS011;5863;52.832;4.758;2023-03-01T08:48:04;15.97;;;13.27;;
11614;SDS011;5863;52.832;4.758;2023-03-01T08:50:31;16.10;;;13.20;;
11614;SDS011;5863;52.832;4.758;2023-03-01T08:52:57;15.57;;;12.37;;
11614;SDS011;5863;52.832;4.758;2023-03-01T08:55:25;15.10;;;12.77;;
11614;SDS011;5863;52.832;4.758;2023-03-01T08:57:52;14.90;;;12.53;;
11614;SDS011;5863;52.832;4.758;2023-03-01T09:00:19;15.43;;;12.53;;
11614;SDS011;5863;52.832;4.758;2023-03-01T09:02:47;15.63;;;12.17;;
11614;SDS011;5863;52.832;4.758;2023-03-01T09:05:13;16.13;;;12.73;;
11614;SDS011;5863;52.832;4.758;2023-03-01T09:07:40;14.67;;;11.50;;
11614;SDS011;5863;52.832;4.758;2023-03-01T09:10:07;15.97;;;12.63;;
11614;SDS011;5863;52.832;4.758;2023-03-01T09:12:36;14.37;;;12.40;;
11614;SDS011;5863;52.832;4.758;2023-03-01T09:15:03;13.37;;;11.43;;
11614;SDS011;5863;52.832;4.758;2023-03-01T09:17:31;14.03;;;11.63;;
11614;SDS011;5863;52.832;4.758;2023-03-01T09:19:57;12.53;;;11.20;;
11614;SDS011;5863;52.832;4.758;2023-03-01T09:22:24;14.23;;;11.53;;
11614;SDS011;5863;52.832;4.758;2023-03-01T09:24:51;14.70;;;11.47;;
11614;SDS011;5863;52.832;4.758;2023-03-01T09:27:18;15.13;;;11.70;;
11614;SDS011;5863;52.832;4.758;2023-03-01T09:29:46;16.77;;;12.23;;
11614;SDS011;5863;52.832;4.758;2023-03-01T09:32:13;16.13;;;11.60;;
11614;SDS011;5863;52.832;4.758;2023-03-01T09:34:40;17.40;;;12.57;;
11614;SDS011;5863;52.832;4.758;2023-03-01T09:37:21;14.90;;;11.53;;
11614;SDS011;5863;52.832;4.758;2023-03-01T09:39:48;17.43;;;12.97;;
11614;SDS011;5863;52.832;4.758;2023-03-01T09:42:14;15.33;;;12.43;;
11614;SDS011;5863;52.832;4.758;2023-03-01T09:44:43;17.60;;;12.07;;
11614;SDS011;5863;52.832;4.758;2023-03-01T09:47:17;14.13;;;11.53;;
11614;SDS011;5863;52.832;4.758;2023-03-01T09:49:48;13.30;;;11.70;;
11614;SDS011;5863;52.832;4.758;2023-03-01T09:52:26;16.47;;;11.43;;
11614;SDS011;5863;52.832;4.758;2023-03-01T09:54:59;15.23;;;10.90;;
11614;SDS011;5863;52.832;4.758;2023-03-01T09:57:28;13.03;;;10.30;;
11614;SDS011;5863;52.832;4.758;2023-03-01T10:00:09;13.43;;;10.00;;
11614;SDS011;5863;52.832;4.758;2023-03-01T10:02:43;14.20;;;10.80;;
11614;SDS011;5863;52.832;4.758;2023-03-01T10:05:15;11.83;;;10.23;;
11614;SDS011;5863;52.832;4.758;2023-03-01T10:07:53;14.90;;;11.30;;
11614;SDS011;5863;52.832;4.758;2023-03-01T10:10:31;13.30;;;10.83;;
11614;SDS011;5863;52.832;4.758;2023-03-01T10:13:01;13.37;;;10.63;;
11614;SDS011;5863;52.832;4.758;2023-03-01T10:15:37;13.30;;;10.50;;
11614;SDS011;5863;52.832;4.758;2023-03-01T10:18:09;12.57;;;10.93;;
11614;SDS011;5863;52.832;4.758;2023-03-01T10:20:43;14.07;;;10.70;;
11614;SDS011;5863;52.832;4.758;2023-03-01T10:23:16;12.50;;;10.40;;
11614;SDS011;5863;52.832;4.758;2023-03-01T10:25:45;12.10;;;10.10;;
11614;SDS011;5863;52.832;4.758;2023-03-01T10:28:23;10.83;;;9.40;;
11614;SDS011;5863;52.832;4.758;2023-03-01T10:30:55;14.93;;;10.60;;
11614;SDS011;5863;52.832;4.758;2023-03-01T10:33:25;12.23;;;10.33;;
11614;SDS011;5863;52.832;4.758;2023-03-01T10:35:55;15.53;;;10.77;;
11614;SDS011;5863;52.832;4.758;2023-03-01T10:38:22;14.40;;;12.63;;
11614;SDS011;5863;52.832;4.758;2023-03-01T10:40:51;14.07;;;11.50;;
11614;SDS011;5863;52.832;4.758;2023-03-01T10:43:19;12.77;;;10.73;;
11614;SDS011;5863;52.832;4.758;2023-03-01T10:45:47;13.80;;;10.83;;
11614;SDS011;5863;52.832;4.758;2023-03-01T10:48:17;13.07;;;9.97;;
11614;SDS011;5863;52.832;4.758;2023-03-01T10:50:49;11.37;;;10.17;;
11614;SDS011;5863;52.832;4.758;2023-03-01T10:53:21;13.73;;;11.00;;
11614;SDS011;5863;52.832;4.758;2023-03-01T10:55:58;12.13;;;10.53;;
11614;SDS011;5863;52.832;4.758;2023-03-01T10:58:28;14.33;;;11.37;;
11614;SDS011;5863;52.832;4.758;2023-03-01T11:00:56;13.73;;;11.00;;
11614;SDS011;5863;52.832;4.758;2023-03-01T11:03:30;14.40;;;11.00;;
11614;SDS011;5863;52.832;4.758;2023-03-01T11:05:59;13.43;;;11.00;;
11614;SDS011;5863;52.832;4.758;2023-03-01T11:08:35;13.77;;;11.73;;
11614;SDS011;5863;52.832;4.758;2023-03-01T11:11:11;14.70;;;11.73;;
11614;SDS011;5863;52.832;4.758;2023-03-01T11:13:50;13.77;;;11.50;;
11614;SDS011;5863;52.832;4.758;2023-03-01T11:16:25;16.20;;;12.03;;
11614;SDS011;5863;52.832;4.758;2023-03-01T11:19:00;13.77;;;11.53;;
11614;SDS011;5863;52.832;4.758;2023-03-01T11:21:40;13.03;;;11.60;;
11614;SDS011;5863;52.832;4.758;2023-03-01T11:24:10;13.50;;;12.10;;
11614;SDS011;5863;52.832;4.758;2023-03-01T11:26:40;13.83;;;11.43;;
11614;SDS011;5863;52.832;4.758;2023-03-01T11:29:12;12.30;;;10.93;;
11614;SDS011;5863;52.832;4.758;2023-03-01T11:31:47;13.55;;;11.75;;
11614;SDS011;5863;52.832;4.758;2023-03-01T11:34:19;13.27;;;11.80;;
11614;SDS011;5863;52.832;4.758;2023-03-01T11:36:56;13.20;;;11.50;;
11614;SDS011;5863;52.832;4.758;2023-03-01T11:39:28;14.13;;;11.07;;
11614;SDS011;5863;52.832;4.758;2023-03-01T11:42:01;13.68;;;11.57;;
11614;SDS011;5863;52.832;4.758;2023-03-01T11:44:33;13.53;;;11.23;;
11614;SDS011;5863;52.832;4.758;2023-03-01T11:47:08;14.83;;;11.47;;
11614;SDS011;5863;52.832;4.758;2023-03-01T11:53:07;14.07;;;11.17;;
11614;SDS011;5863;52.832;4.758;2023-03-01T11:55:50;12.13;;;9.97;;
11614;SDS011;5863;52.832;4.758;2023-03-01T11:58:45;15.17;;;10.90;;
11614;SDS011;5863;52.832;4.758;2023-03-01T12:04:17;12.47;;;11.17;;
11614;SDS011;5863;52.832;4.758;2023-03-01T12:06:57;16.47;;;11.80;;
11614;SDS011;5863;52.832;4.758;2023-03-01T12:09:36;13.37;;;11.50;;
11614;SDS011;5863;52.832;4.758;2023-03-01T12:12:23;14.90;;;11.73;;
11614;SDS011;5863;52.832;4.758;2023-03-01T12:15:05;16.00;;;12.40;;
11614;SDS011;5863;52.832;4.758;2023-03-01T12:18:00;13.47;;;11.90;;
11614;SDS011;5863;52.832;4.758;2023-03-01T12:20:41;15.20;;;12.17;;
11614;SDS011;5863;52.832;4.758;2023-03-01T12:23:25;14.13;;;12.17;;
11614;SDS011;5863;52.832;4.758;2023-03-01T12:26:05;15.57;;;11.90;;
11614;SDS011;5863;52.832;4.758;2023-03-01T12:28:45;13.60;;;11.90;;
11614;SDS011;5863;52.832;4.758;2023-03-01T12:34:53;15.73;;;11.57;;
11614;SDS011;5863;52.832;4.758;2023-03-01T12:37:31;13.57;;;11.20;;
11614;SDS011;5863;52.832;4.758;2023-03-01T12:43:32;14.17;;;11.60;;
11614;SDS011;5863;52.832;4.758;2023-03-01T12:46:10;12.67;;;10.13;;
11614;SDS011;5863;52.832;4.758;2023-03-01T12:48:49;12.83;;;10.50;;
11614;SDS011;5863;52.832;4.758;2023-03-01T12:51:20;13.60;;;10.27;;
11614;SDS011;5863;52.832;4.758;2023-03-01T12:53:53;13.37;;;10.03;;
11614;SDS011;5863;52.832;4.758;2023-03-01T12:56:22;12.33;;;10.33;;
11614;SDS011;5863;52.832;4.758;2023-03-01T12:58:55;11.00;;;9.60;;
11614;SDS011;5863;52.832;4.758;2023-03-01T13:01:33;11.10;;;8.87;;
11614;SDS011;5863;52.832;4.758;2023-03-01T13:04:14;13.27;;;9.93;;
11614;SDS011;5863;52.832;4.758;2023-03-01T13:10:19;12.93;;;9.17;;
11614;SDS011;5863;52.832;4.758;2023-03-01T13:13:00;11.23;;;9.27;;
11614;SDS011;5863;52.832;4.758;2023-03-01T13:15:37;10.93;;;9.20;;
11614;SDS011;5863;52.832;4.758;2023-03-01T13:20:55;10.03;;;8.17;;
11614;SDS011;5863;52.832;4.758;2023-03-01T13:23:27;11.90;;;8.10;;
11614;SDS011;5863;52.832;4.758;2023-03-01T13:28:48;15.13;;;9.23;;
11614;SDS011;5863;52.832;4.758;2023-03-01T13:37:26;12.47;;;9.20;;
11614;SDS011;5863;52.832;4.758;2023-03-01T13:39:56;12.13;;;9.43;;
11614;SDS011;5863;52.832;4.758;2023-03-01T13:42:31;10.90;;;9.53;;
11614;SDS011;5863;52.832;4.758;2023-03-01T13:45:12;12.13;;;9.43;;
11614;SDS011;5863;52.832;4.758;2023-03-01T13:47:46;13.23;;;9.10;;
11614;SDS011;5863;52.832;4.758;2023-03-01T13:50:18;12.70;;;9.50;;
11614;SDS011;5863;52.832;4.758;2023-03-01T13:52:48;12.73;;;9.53;;
11614;SDS011;5863;52.832;4.758;2023-03-01T13:55:20;12.90;;;9.87;;
11614;SDS011;5863;52.832;4.758;2023-03-01T13:57:50;13.10;;;10.43;;
11614;SDS011;5863;52.832;4.758;2023-03-01T14:00:28;15.93;;;11.03;;
11614;SDS011;5863;52.832;4.758;2023-03-01T14:03:01;15.37;;;10.87;;
11614;SDS011;5863;52.832;4.758;2023-03-01T14:05:35;13.23;;;10.07;;
11614;SDS011;5863;52.832;4.758;2023-03-01T14:08:03;12.53;;;10.70;;
11614;SDS011;5863;52.832;4.758;2023-03-01T14:10:31;14.60;;;11.00;;
11614;SDS011;5863;52.832;4.758;2023-03-01T14:13:10;12.97;;;10.30;;
11614;SDS011;5863;52.832;4.758;2023-03-01T14:19:15;14.17;;;10.47;;
11614;SDS011;5863;52.832;4.758;2023-03-01T14:21:46;14.37;;;11.00;;
11614;SDS011;5863;52.832;4.758;2023-03-01T14:24:20;17.77;;;10.93;;
11614;SDS011;5863;52.832;4.758;2023-03-01T14:26:48;14.47;;;11.13;;
11614;SDS011;5863;52.832;4.758;2023-03-01T14:29:26;15.67;;;11.13;;
11614;SDS011;5863;52.832;4.758;2023-03-01T14:32:12;14.03;;;11.17;;
11614;SDS011;5863;52.832;4.758;2023-03-01T14:34:45;13.53;;;10.73;;
11614;SDS011;5863;52.832;4.758;2023-03-01T14:37:22;18.63;;;11.37;;
11614;SDS011;5863;52.832;4.758;2023-03-01T14:39:51;14.57;;;11.40;;
11614;SDS011;5863;52.832;4.758;2023-03-01T14:42:19;19.10;;;11.23;;
11614;SDS011;5863;52.832;4.758;2023-03-01T14:44:49;12.40;;;11.07;;
11614;SDS011;5863;52.832;4.758;2023-03-01T14:47:20;15.33;;;11.30;;
11614;SDS011;5863;52.832;4.758;2023-03-01T14:49:54;12.83;;;10.90;;
11614;SDS011;5863;52.832;4.758;2023-03-01T14:52:27;14.70;;;10.93;;
11614;SDS011;5863;52.832;4.758;2023-03-01T14:55:00;14.03;;;11.00;;
11614;SDS011;5863;52.832;4.758;2023-03-01T14:57:30;14.37;;;11.13;;
11614;SDS011;5863;52.832;4.758;2023-03-01T14:59:58;17.90;;;12.53;;
11614;SDS011;5863;52.832;4.758;2023-03-01T15:02:29;16.80;;;12.60;;
11614;SDS011;5863;52.832;4.758;2023-03-01T15:04:58;14.67;;;12.40;;
11614;SDS011;5863;52.832;4.758;2023-03-01T15:07:31;16.27;;;12.37;;
11614;SDS011;5863;52.832;4.758;2023-03-01T15:10:00;16.63;;;12.10;;
11614;SDS011;5863;52.832;4.758;2023-03-01T15:12:38;15.27;;;12.13;;
11614;SDS011;5863;52.832;4.758;2023-03-01T15:18:05;16.43;;;12.37;;
11614;SDS011;5863;52.832;4.758;2023-03-01T15:20:39;18.67;;;12.53;;
11614;SDS011;5863;52.832;4.758;2023-03-01T15:23:22;16.03;;;12.20;;
11614;SDS011;5863;52.832;4.758;2023-03-01T15:25:50;16.83;;;12.23;;
11614;SDS011;5863;52.832;4.758;2023-03-01T15:28:24;15.27;;;11.70;;
11614;SDS011;5863;52.832;4.758;2023-03-01T15:30:55;14.43;;;12.30;;
11614;SDS011;5863;52.832;4.758;2023-03-01T15:33:33;14.90;;;12.50;;
11614;SDS011;5863;52.832;4.758;2023-03-01T15:36:03;13.47;;;11.97;;
11614;SDS011;5863;52.832;4.758;2023-03-01T15:38:54;13.60;;;11.40;;
11614;SDS011;5863;52.832;4.758;2023-03-01T15:43:52;14.17;;;11.50;;
11614;SDS011;5863;52.832;4.758;2023-03-01T15:46:24;14.77;;;12.27;;
11614;SDS011;5863;52.832;4.758;2023-03-01T15:48:54;15.77;;;12.20;;
11614;SDS011;5863;52.832;4.758;2023-03-01T15:51:36;13.27;;;11.30;;